Time,TemperatureF,DewpointF,PressureIn,WindDirection,WindDirectionDegrees,WindSpeedMPH,WindSpeedGustMPH,Humidity,HourlyPrecipIn,Conditions,Clouds,dailyrainin,SolarRadiationWatts/m^2,SoftwareType,DateUTC
2013-04-19 00:11:00,47.4,35.0,30.16,South,170,7.0,16.0,63,0.00,,,0.00,0,weatherlink.com 1.10,2013-04-19 04:11:00,
2013-04-19 00:26:00,47.2,37.0,30.15,SW,215,6.0,15.0,67,0.00,,,0.00,0,weatherlink.com 1.10,2013-04-19 04:26:00,
2013-04-19 00:41:00,46.9,38.0,30.14,SSW,206,2.0,17.0,71,0.00,,,0.00,0,weatherlink.com 1.10,2013-04-19 04:41:00,
2013-04-19 00:56:00,46.6,39.0,30.12,South,182,4.0,16.0,75,0.00,,,0.00,0,weatherlink.com 1.10,2013-04-19 04:56:00,
2013-04-19 01:11:00,46.4,40.0,30.11,SSW,205,7.0,17.0,78,0.00,,,0.00,0,weatherlink.com 1.10,2013-04-19 05:11:00,
2013-04-19 01:26:00,46.3,40.0,30.10,SSW,209,7.0,17.0,80,0.00,,,0.00,0,weatherlink.com 1.10,2013-04-19 05:26:00,
2013-04-19 01:41:00,46.2,41.0,30.09,WSW,238,12.0,16.0,82,0.00,,,0.00,0,weatherlink.com 1.10,2013-04-19 05:41:00,
2013-04-19 01:56:00,46.1,41.0,30.07,South,173,8.0,21.0,83,0.00,,,0.00,0,weatherlink.com 1.10,2013-04-19 05:56:00,
2013-04-19 02:11:00,46.2,42.0,30.07,SSW,213,7.0,19.0,85,0.00,,,0.00,0,weatherlink.com 1.10,2013-04-19 06:11:00,
2013-04-19 02:26:00,46.3,42.0,30.07,SSW,200,7.0,19.0,86,0.00,,,0.00,0,weatherlink.com 1.10,2013-04-19 06:26:00,
2013-04-19 02:41:00,46.6,43.0,30.07,WSW,248,12.0,19.0,87,0.00,,,0.00,0,weatherlink.com 1.10,2013-04-19 06:41:00,
2013-04-19 02:56:00,47.2,44.0,30.07,SW,225,12.0,21.0,88,0.00,,,0.00,0,weatherlink.com 1.10,2013-04-19 06:56:00,
2013-04-19 03:11:00,47.5,44.0,30.07,SW,231,9.0,19.0,88,0.00,,,0.00,0,weatherlink.com 1.10,2013-04-19 07:11:00,
2013-04-19 03:26:00,47.3,44.0,30.07,West,261,6.0,14.0,89,0.00,,,0.00,0,weatherlink.com 1.10,2013-04-19 07:26:00,
2013-04-19 03:41:00,46.8,44.0,30.07,WSW,246,11.0,17.0,91,0.00,,,0.00,0,weatherlink.com 1.10,2013-04-19 07:41:00,
2013-04-19 03:56:00,47.2,45.0,30.05,South,189,14.0,14.0,93,0.00,,,0.00,0,weatherlink.com 1.10,2013-04-19 07:56:00,
2013-04-19 04:11:00,47.5,46.0,30.05,SW,232,12.0,19.0,94,0.00,,,0.00,0,weatherlink.com 1.10,2013-04-19 08:11:00,
2013-04-19 04:26:00,48.0,47.0,30.04,SW,219,11.0,20.0,95,0.00,,,0.00,0,weatherlink.com 1.10,2013-04-19 08:26:00,
2013-04-19 04:41:00,49.5,48.0,30.02,WSW,258,15.0,24.0,95,0.00,,,0.00,0,weatherlink.com 1.10,2013-04-19 08:41:00,
2013-04-19 04:56:00,51.0,49.0,30.01,WSW,242,10.0,22.0,94,0.00,,,0.00,0,weatherlink.com 1.10,2013-04-19 08:56:00,
2013-04-19 05:11:00,51.2,50.0,30.00,SSW,193,17.0,25.0,94,0.00,,,0.00,0,weatherlink.com 1.10,2013-04-19 09:11:00,
2013-04-19 05:26:00,51.1,50.0,30.00,SSW,205,25.0,30.0,95,0.00,,,0.00,0,weatherlink.com 1.10,2013-04-19 09:26:00,
2013-04-19 05:41:00,51.8,51.0,30.00,WSW,250,26.0,32.0,95,0.00,,,0.00,0,weatherlink.com 1.10,2013-04-19 09:41:00,
2013-04-19 05:56:00,51.9,50.0,30.01,West,261,15.0,22.0,94,0.00,,,0.00,0,weatherlink.com 1.10,2013-04-19 09:56:00,
2013-04-19 06:11:00,51.9,51.0,30.02,WSW,250,11.0,25.0,95,0.00,,,0.00,0,weatherlink.com 1.10,2013-04-19 10:11:00,
2013-04-19 06:27:00,50.8,50.0,30.02,WSW,247,11.0,22.0,96,0.00,,,0.00,12,weatherlink.com 1.10,2013-04-19 10:27:00,
2013-04-19 06:42:00,52.1,51.0,30.01,SW,230,12.0,27.0,96,0.00,,,0.00,32,weatherlink.com 1.10,2013-04-19 10:42:00,
2013-04-19 06:57:00,52.9,51.0,30.00,SSW,200,12.0,33.0,94,0.00,,,0.00,51,weatherlink.com 1.10,2013-04-19 10:57:00,
2013-04-19 07:12:00,53.0,51.0,30.00,WSW,249,3.0,26.0,94,0.00,,,0.00,63,weatherlink.com 1.10,2013-04-19 11:12:00,
2013-04-19 07:27:00,53.3,51.0,30.01,WSW,253,11.0,25.0,93,0.00,,,0.00,44,weatherlink.com 1.10,2013-04-19 11:27:00,
2013-04-19 07:42:00,53.4,52.0,29.99,SSW,210,10.0,24.0,93,0.00,,,0.00,102,weatherlink.com 1.10,2013-04-19 11:42:00,
2013-04-19 07:57:00,53.9,52.0,29.99,West,279,18.0,26.0,93,0.00,,,0.00,134,weatherlink.com 1.10,2013-04-19 11:57:00,
2013-04-19 08:12:00,54.0,52.0,29.98,WSW,247,8.0,24.0,92,0.00,,,0.00,142,weatherlink.com 1.10,2013-04-19 12:12:00,
2013-04-19 08:27:00,54.6,52.0,29.98,SW,232,13.0,32.0,91,0.00,,,0.00,169,weatherlink.com 1.10,2013-04-19 12:27:00,
2013-04-19 08:42:00,55.5,53.0,29.98,West,261,15.0,19.0,90,0.00,,,0.00,223,weatherlink.com 1.10,2013-04-19 12:42:00,
2013-04-19 08:57:00,55.8,53.0,29.98,WSW,256,9.0,28.0,89,0.00,,,0.00,139,weatherlink.com 1.10,2013-04-19 12:57:00,
2013-04-19 09:12:00,56.2,53.0,29.98,West,259,12.0,25.0,89,0.00,,,0.00,193,weatherlink.com 1.10,2013-04-19 13:12:00,
2013-04-19 09:27:00,56.4,53.0,29.97,WSW,246,14.0,30.0,89,0.00,,,0.00,239,weatherlink.com 1.10,2013-04-19 13:27:00,
2013-04-19 09:42:00,57.6,54.0,29.96,WSW,248,15.0,21.0,87,0.00,,,0.00,357,weatherlink.com 1.10,2013-04-19 13:42:00,
2013-04-19 09:57:00,58.2,54.0,29.96,West,259,13.0,22.0,85,0.00,,,0.00,299,weatherlink.com 1.10,2013-04-19 13:57:00,
2013-04-19 10:12:00,58.2,54.0,29.95,West,281,8.0,24.0,86,0.00,,,0.00,274,weatherlink.com 1.10,2013-04-19 14:12:00,
2013-04-19 10:27:00,58.8,54.0,29.95,SW,234,20.0,29.0,85,0.00,,,0.00,1030,weatherlink.com 1.10,2013-04-19 14:27:00,
2013-04-19 10:42:00,60.0,55.0,29.94,SW,220,10.0,32.0,83,0.00,,,0.00,652,weatherlink.com 1.10,2013-04-19 14:42:00,
2013-04-19 10:57:00,61.1,55.0,29.93,WSW,244,17.0,28.0,80,0.00,,,0.00,439,weatherlink.com 1.10,2013-04-19 14:57:00,
2013-04-19 11:12:00,61.7,55.0,29.93,WSW,249,13.0,25.0,79,0.00,,,0.00,527,weatherlink.com 1.10,2013-04-19 15:12:00,
2013-04-19 11:27:00,61.8,55.0,29.93,WSW,243,16.0,20.0,78,0.00,,,0.00,327,weatherlink.com 1.10,2013-04-19 15:27:00,
2013-04-19 11:42:00,61.6,55.0,29.91,WSW,248,8.0,23.0,78,0.00,,,0.00,462,weatherlink.com 1.10,2013-04-19 15:42:00,
2013-04-19 11:57:00,62.3,55.0,29.90,WSW,255,8.0,31.0,77,0.00,,,0.00,408,weatherlink.com 1.10,2013-04-19 15:57:00,
2013-04-19 12:12:00,62.5,55.0,29.90,WSW,248,9.0,26.0,77,0.00,,,0.00,211,weatherlink.com 1.10,2013-04-19 16:12:00,
2013-04-19 12:27:00,64.5,56.0,29.89,West,265,15.0,26.0,73,0.00,,,0.00,896,weatherlink.com 1.10,2013-04-19 16:27:00,
2013-04-19 12:42:00,65.4,56.0,29.88,SW,221,12.0,24.0,71,0.00,,,0.00,573,weatherlink.com 1.10,2013-04-19 16:42:00,
2013-04-19 12:57:00,65.5,55.0,29.87,West,277,10.0,37.0,69,0.00,,,0.00,366,weatherlink.com 1.10,2013-04-19 16:57:00,
2013-04-19 13:13:00,66.4,55.0,29.86,WNW,282,15.0,28.0,67,0.00,,,0.00,1041,weatherlink.com 1.10,2013-04-19 17:13:00,
2013-04-19 13:28:00,66.8,55.0,29.85,WSW,247,14.0,33.0,67,0.00,,,0.00,656,weatherlink.com 1.10,2013-04-19 17:28:00,
2013-04-19 13:43:00,68.8,56.0,29.83,SW,219,27.0,28.0,64,0.00,,,0.00,944,weatherlink.com 1.10,2013-04-19 17:43:00,
2013-04-19 13:58:00,68.8,56.0,29.83,WSW,241,14.0,37.0,63,0.00,,,0.00,336,weatherlink.com 1.10,2013-04-19 17:58:00,
2013-04-19 14:13:00,69.3,56.0,29.82,SW,226,7.0,27.0,63,0.00,,,0.00,921,weatherlink.com 1.10,2013-04-19 18:13:00,
2013-04-19 14:28:00,68.7,56.0,29.82,SW,232,15.0,28.0,64,0.00,,,0.00,221,weatherlink.com 1.10,2013-04-19 18:28:00,
2013-04-19 14:43:00,67.8,56.0,29.81,West,267,13.0,18.0,66,0.00,,,0.00,218,weatherlink.com 1.10,2013-04-19 18:43:00,
2013-04-19 14:58:00,67.9,56.0,29.80,SW,236,13.0,18.0,67,0.00,,,0.00,429,weatherlink.com 1.10,2013-04-19 18:58:00,
2013-04-19 15:13:00,67.5,57.0,29.80,WSW,239,7.0,26.0,69,0.00,,,0.00,225,weatherlink.com 1.10,2013-04-19 19:13:00,
2013-04-19 15:28:00,67.0,57.0,29.79,SSW,213,10.0,26.0,70,0.00,,,0.00,301,weatherlink.com 1.10,2013-04-19 19:28:00,
2013-04-19 15:43:00,69.3,58.0,29.78,SW,223,11.0,19.0,67,0.00,,,0.00,330,weatherlink.com 1.10,2013-04-19 19:43:00,
2013-04-19 15:58:00,66.9,57.0,29.78,South,187,18.0,26.0,70,0.00,,,0.00,93,weatherlink.com 1.10,2013-04-19 19:58:00,
2013-04-19 16:13:00,65.8,58.0,29.78,WSW,244,7.0,24.0,75,0.00,,,0.00,165,weatherlink.com 1.10,2013-04-19 20:13:00,
2013-04-19 16:28:00,64.3,58.0,29.77,WSW,247,8.0,22.0,80,0.00,,,0.00,229,weatherlink.com 1.10,2013-04-19 20:28:00,
2013-04-19 16:43:00,64.8,58.0,29.76,SSW,197,15.0,21.0,78,0.00,,,0.00,95,weatherlink.com 1.10,2013-04-19 20:43:00,
2013-04-19 16:58:00,64.8,58.0,29.75,SSW,213,13.0,22.0,78,0.00,,,0.00,98,weatherlink.com 1.10,2013-04-19 20:58:00,
2013-04-19 17:13:00,65.7,58.0,29.74,WSW,241,13.0,21.0,76,0.00,,,0.00,149,weatherlink.com 1.10,2013-04-19 21:13:00,
2013-04-19 17:28:00,66.3,58.0,29.73,SW,214,8.0,16.0,75,0.00,,,0.00,83,weatherlink.com 1.10,2013-04-19 21:28:00,
2013-04-19 17:43:00,66.4,58.0,29.71,SSW,192,7.0,18.0,75,0.00,,,0.00,127,weatherlink.com 1.10,2013-04-19 21:43:00,
2013-04-19 17:58:00,66.0,59.0,29.71,SSW,209,15.0,27.0,78,0.00,,,0.00,76,weatherlink.com 1.10,2013-04-19 21:58:00,
2013-04-19 18:13:00,64.6,59.0,29.70,SW,216,9.0,22.0,82,0.00,,,0.00,81,weatherlink.com 1.10,2013-04-19 22:13:00,
2013-04-19 18:28:00,64.0,59.0,29.70,SSW,197,9.0,22.0,84,0.00,,,0.00,42,weatherlink.com 1.10,2013-04-19 22:28:00,
2013-04-19 18:43:00,63.5,59.0,29.68,SW,232,5.0,27.0,86,0.00,,,0.00,39,weatherlink.com 1.10,2013-04-19 22:43:00,
2013-04-19 18:58:00,63.2,59.0,29.65,SW,223,14.0,33.0,86,0.00,,,0.00,26,weatherlink.com 1.10,2013-04-19 22:58:00,
2013-04-19 19:13:00,63.1,59.0,29.62,SSW,204,26.0,39.0,86,0.00,,,0.00,16,weatherlink.com 1.10,2013-04-19 23:13:00,
2013-04-19 19:28:00,63.0,59.0,29.64,WSW,237,7.0,31.0,87,0.00,,,0.00,5,weatherlink.com 1.10,2013-04-19 23:28:00,
2013-04-19 19:43:00,63.1,59.0,29.67,SSW,209,16.0,34.0,87,0.00,,,0.00,0,weatherlink.com 1.10,2013-04-19 23:43:00,
2013-04-19 19:58:00,63.3,59.0,29.68,SW,219,14.0,31.0,87,0.00,,,0.00,0,weatherlink.com 1.10,2013-04-19 23:58:00,
2013-04-19 20:13:00,63.4,60.0,29.67,SW,229,17.0,37.0,87,0.00,,,0.00,0,weatherlink.com 1.10,2013-04-20 00:13:00,
2013-04-19 20:28:00,63.3,59.0,29.67,WSW,239,10.0,35.0,87,0.00,,,0.00,0,weatherlink.com 1.10,2013-04-20 00:28:00,
2013-04-19 20:43:00,63.4,60.0,29.67,West,268,27.0,39.0,87,0.00,,,0.00,0,weatherlink.com 1.10,2013-04-20 00:43:00,
2013-04-19 20:58:00,63.2,59.0,29.66,SW,233,14.0,34.0,87,0.00,,,0.00,0,weatherlink.com 1.10,2013-04-20 00:58:00,
2013-04-19 21:13:00,62.7,59.0,29.64,SSW,213,13.0,29.0,88,0.00,,,0.00,0,weatherlink.com 1.10,2013-04-20 01:13:00,
2013-04-19 21:28:00,62.6,59.0,29.63,SW,231,15.0,30.0,88,0.00,,,0.00,0,weatherlink.com 1.10,2013-04-20 01:28:00,
2013-04-19 21:43:00,62.5,59.0,29.63,WSW,244,15.0,26.0,89,0.00,,,0.00,0,weatherlink.com 1.10,2013-04-20 01:43:00,
2013-04-19 21:58:00,62.4,59.0,29.62,SW,219,28.0,33.0,89,0.00,,,0.00,0,weatherlink.com 1.10,2013-04-20 01:58:00,
2013-04-19 22:13:00,62.6,59.0,29.62,SSW,200,11.0,40.0,88,0.00,,,0.00,0,weatherlink.com 1.10,2013-04-20 02:13:00,
2013-04-19 22:28:00,62.0,59.0,29.60,SW,234,25.0,37.0,90,0.00,,,0.00,0,weatherlink.com 1.10,2013-04-20 02:28:00,
2013-04-19 22:43:00,61.2,59.0,29.61,SW,219,18.0,33.0,93,0.00,,,0.00,0,weatherlink.com 1.10,2013-04-20 02:43:00,
2013-04-19 22:58:00,61.1,59.0,29.60,South,187,17.0,26.0,93,0.00,,,0.00,0,weatherlink.com 1.10,2013-04-20 02:58:00,
2013-04-19 23:13:00,60.7,59.0,29.60,West,270,19.0,30.0,94,0.01,,,0.01,0,weatherlink.com 1.10,2013-04-20 03:13:00,
2013-04-19 23:28:00,60.7,59.0,29.59,SSW,206,15.0,35.0,94,0.01,,,0.01,0,weatherlink.com 1.10,2013-04-20 03:28:00,
2013-04-19 23:44:00,60.5,59.0,29.59,SSW,206,19.0,48.0,96,0.08,,,0.08,0,weatherlink.com 1.10,2013-04-20 03:44:00,
2013-04-19 23:59:00,59.3,57.0,29.65,WSW,250,21.0,41.0,93,0.16,,,0.16,0,weatherlink.com 1.10,2013-04-20 03:59:00,